sensor_id;sensor_type;location;lat;lon;timestamp;temperature;humidity
6443;DHT22;3254;47.372;8.512;2023-10-09T00:00:26;12.00;97.90
6443;DHT22;3254;47.372;8.512;2023-10-09T00:03:18;11.90;96.60
6443;DHT22;3254;47.372;8.512;2023-10-09T00:05:45;11.90;96.10
6443;DHT22;3254;47.372;8.512;2023-10-09T00:08:29;11.90;97.50
6443;DHT22;3254;47.372;8.512;2023-10-09T00:11:01;11.80;98.60
6443;DHT22;3254;47.372;8.512;2023-10-09T00:13:46;11.90;99.90
6443;DHT22;3254;47.372;8.512;2023-10-09T00:16:16;11.90;99.90
6443;DHT22;3254;47.372;8.512;2023-10-09T00:18:42;11.90;99.90
6443;DHT22;3254;47.372;8.512;2023-10-09T00:21:18;11.80;99.90
6443;DHT22;3254;47.372;8.512;2023-10-09T00:23:48;11.80;99.90
6443;DHT22;3254;47.372;8.512;2023-10-09T00:26:25;11.80;99.90
6443;DHT22;3254;47.372;8.512;2023-10-09T00:28:52;11.80;99.90
6443;DHT22;3254;47.372;8.512;2023-10-09T00:31:18;11.80;99.90
6443;DHT22;3254;47.372;8.512;2023-10-09T00:34:19;11.70;99.90
6443;DHT22;3254;47.372;8.512;2023-10-09T00:36:49;11.70;99.90
6443;DHT22;3254;47.372;8.512;2023-10-09T00:39:21;11.70;99.90
6443;DHT22;3254;47.372;8.512;2023-10-09T00:42:06;11.70;99.90
6443;DHT22;3254;47.372;8.512;2023-10-09T00:44:34;11.60;99.90
6443;DHT22;3254;47.372;8.512;2023-10-09T00:47:08;11.60;99.90
6443;DHT22;3254;47.372;8.512;2023-10-09T00:49:58;11.50;99.90
6443;DHT22;3254;47.372;8.512;2023-10-09T00:52:29;11.50;99.90
6443;DHT22;3254;47.372;8.512;2023-10-09T00:54:59;11.50;99.90
6443;DHT22;3254;47.372;8.512;2023-10-09T00:57:29;11.50;99.90
6443;DHT22;3254;47.372;8.512;2023-10-09T00:59:58;11.40;99.90
6443;DHT22;3254;47.372;8.512;2023-10-09T01:02:28;11.50;99.90
6443;DHT22;3254;47.372;8.512;2023-10-09T01:05:04;11.50;99.90
6443;DHT22;3254;47.372;8.512;2023-10-09T01:07:46;11.50;99.90
6443;DHT22;3254;47.372;8.512;2023-10-09T01:10:14;11.50;99.90
6443;DHT22;3254;47.372;8.512;2023-10-09T01:12:44;11.40;99.90
6443;DHT22;3254;47.372;8.512;2023-10-09T01:15:12;11.30;99.90
6443;DHT22;3254;47.372;8.512;2023-10-09T01:18:01;11.30;99.90
6443;DHT22;3254;47.372;8.512;2023-10-09T01:20:28;11.20;99.90
6443;DHT22;3254;47.372;8.512;2023-10-09T01:23:01;11.20;99.90
6443;DHT22;3254;47.372;8.512;2023-10-09T01:25:27;11.20;99.90
6443;DHT22;3254;47.372;8.512;2023-10-09T01:28:07;11.30;99.90
6443;DHT22;3254;47.372;8.512;2023-10-09T01:30:34;11.20;99.90
6443;DHT22;3254;47.372;8.512;2023-10-09T01:33:09;11.20;99.90
6443;DHT22;3254;47.372;8.512;2023-10-09T01:35:48;11.30;99.90
6443;DHT22;3254;47.372;8.512;2023-10-09T01:38:15;11.30;99.90
6443;DHT22;3254;47.372;8.512;2023-10-09T01:40:41;11.40;99.90
6443;DHT22;3254;47.372;8.512;2023-10-09T01:43:10;11.30;99.90
6443;DHT22;3254;47.372;8.512;2023-10-09T01:45:36;11.30;99.90
6443;DHT22;3254;47.372;8.512;2023-10-09T01:48:12;11.20;99.90
6443;DHT22;3254;47.372;8.512;2023-10-09T01:50:44;11.20;99.90
6443;DHT22;3254;47.372;8.512;2023-10-09T01:53:14;11.10;99.90
6443;DHT22;3254;47.372;8.512;2023-10-09T01:55:43;11.10;99.90
6443;DHT22;3254;47.372;8.512;2023-10-09T01:58:11;11.00;99.90
6443;DHT22;3254;47.372;8.512;2023-10-09T02:01:03;11.00;99.90
6443;DHT22;3254;47.372;8.512;2023-10-09T02:03:32;11.10;99.90
6443;DHT22;3254;47.372;8.512;2023-10-09T02:06:03;11.10;99.90
6443;DHT22;3254;47.372;8.512;2023-10-09T02:08:33;11.00;99.90
6443;DHT22;3254;47.372;8.512;2023-10-09T02:11:03;11.10;99.90
6443;DHT22;3254;47.372;8.512;2023-10-09T02:13:30;11.00;99.90
6443;DHT22;3254;47.372;8.512;2023-10-09T02:15:57;10.90;99.90
6443;DHT22;3254;47.372;8.512;2023-10-09T02:18:41;10.90;99.90
6443;DHT22;3254;47.372;8.512;2023-10-09T02:21:20;11.00;99.90
6443;DHT22;3254;47.372;8.512;2023-10-09T02:23:59;11.00;99.90
6443;DHT22;3254;47.372;8.512;2023-10-09T02:26:31;10.90;99.90
6443;DHT22;3254;47.372;8.512;2023-10-09T02:29:05;10.90;99.90
6443;DHT22;3254;47.372;8.512;2023-10-09T02:31:42;10.80;99.90
6443;DHT22;3254;47.372;8.512;2023-10-09T02:34:13;10.80;99.90
6443;DHT22;3254;47.372;8.512;2023-10-09T02:36:41;11.00;99.90
6443;DHT22;3254;47.372;8.512;2023-10-09T02:39:07;10.90;99.90
6443;DHT22;3254;47.372;8.512;2023-10-09T02:41:47;10.90;99.90
6443;DHT22;3254;47.372;8.512;2023-10-09T02:44:14;10.80;99.90
6443;DHT22;3254;47.372;8.512;2023-10-09T02:46:41;10.80;99.90
6443;DHT22;3254;47.372;8.512;2023-10-09T02:49:11;10.80;99.90
6443;DHT22;3254;47.372;8.512;2023-10-09T02:51:42;10.70;99.90
6443;DHT22;3254;47.372;8.512;2023-10-09T02:54:09;10.50;99.90
6443;DHT22;3254;47.372;8.512;2023-10-09T02:56:50;10.50;99.90
6443;DHT22;3254;47.372;8.512;2023-10-09T02:59:31;10.40;99.90
6443;DHT22;3254;47.372;8.512;2023-10-09T03:01:57;10.70;99.90
6443;DHT22;3254;47.372;8.512;2023-10-09T03:04:25;10.60;99.90
6443;DHT22;3254;47.372;8.512;2023-10-09T03:06:57;10.50;99.90
6443;DHT22;3254;47.372;8.512;2023-10-09T03:09:29;10.50;99.90
6443;DHT22;3254;47.372;8.512;2023-10-09T03:12:03;10.40;99.90
6443;DHT22;3254;47.372;8.512;2023-10-09T03:14:31;10.50;99.90
6443;DHT22;3254;47.372;8.512;2023-10-09T03:16:57;10.60;99.90
6443;DHT22;3254;47.372;8.512;2023-10-09T03:19:27;10.60;99.90
6443;DHT22;3254;47.372;8.512;2023-10-09T03:21:55;10.70;99.90
6443;DHT22;3254;47.372;8.512;2023-10-09T03:24:24;10.70;99.90
6443;DHT22;3254;47.372;8.512;2023-10-09T03:26:49;10.70;99.90
6443;DHT22;3254;47.372;8.512;2023-10-09T03:29:16;10.80;99.90
6443;DHT22;3254;47.372;8.512;2023-10-09T03:31:45;10.70;99.90
6443;DHT22;3254;47.372;8.512;2023-10-09T03:34:12;10.60;99.90
6443;DHT22;3254;47.372;8.512;2023-10-09T03:36:37;10.70;99.90
6443;DHT22;3254;47.372;8.512;2023-10-09T03:39:05;10.60;99.90
6443;DHT22;3254;47.372;8.512;2023-10-09T03:41:52;10.50;99.90
6443;DHT22;3254;47.372;8.512;2023-10-09T03:44:20;10.50;99.90
6443;DHT22;3254;47.372;8.512;2023-10-09T03:46:48;10.40;99.90
6443;DHT22;3254;47.372;8.512;2023-10-09T03:49:16;10.40;99.90
6443;DHT22;3254;47.372;8.512;2023-10-09T03:51:48;10.30;99.90
6443;DHT22;3254;47.372;8.512;2023-10-09T03:54:15;10.40;99.90
6443;DHT22;3254;47.372;8.512;2023-10-09T03:56:43;10.40;99.90
6443;DHT22;3254;47.372;8.512;2023-10-09T03:59:10;10.30;99.90
6443;DHT22;3254;47.372;8.512;2023-10-09T04:01:37;10.30;99.90
6443;DHT22;3254;47.372;8.512;2023-10-09T04:04:06;10.40;99.90
6443;DHT22;3254;47.372;8.512;2023-10-09T04:06:38;10.40;99.90
6443;DHT22;3254;47.372;8.512;2023-10-09T04:09:09;10.40;99.90
6443;DHT22;3254;47.372;8.512;2023-10-09T04:11:53;10.40;99.90
6443;DHT22;3254;47.372;8.512;2023-10-09T04:14:41;10.50;99.90
6443;DHT22;3254;47.372;8.512;2023-10-09T04:17:16;10.60;99.90
6443;DHT22;3254;47.372;8.512;2023-10-09T04:19:47;10.70;99.90
6443;DHT22;3254;47.372;8.512;2023-10-09T04:22:40;10.70;99.90
6443;DHT22;3254;47.372;8.512;2023-10-09T04:25:18;10.60;99.90
6443;DHT22;3254;47.372;8.512;2023-10-09T04:27:55;10.50;99.90
6443;DHT22;3254;47.372;8.512;2023-10-09T04:30:37;10.40;99.90
6443;DHT22;3254;47.372;8.512;2023-10-09T04:33:26;10.30;99.90
6443;DHT22;3254;47.372;8.512;2023-10-09T04:36:12;10.30;99.90
6443;DHT22;3254;47.372;8.512;2023-10-09T04:38:44;10.40;99.90
6443;DHT22;3254;47.372;8.512;2023-10-09T04:41:22;10.50;99.90
6443;DHT22;3254;47.372;8.512;2023-10-09T04:43:55;10.40;99.90
6443;DHT22;3254;47.372;8.512;2023-10-09T04:46:41;10.40;99.90
6443;DHT22;3254;47.372;8.512;2023-10-09T04:49:11;10.40;99.90
6443;DHT22;3254;47.372;8.512;2023-10-09T04:51:54;10.40;99.90
6443;DHT22;3254;47.372;8.512;2023-10-09T04:54:49;10.30;99.90
6443;DHT22;3254;47.372;8.512;2023-10-09T04:57:43;10.20;99.90
6443;DHT22;3254;47.372;8.512;2023-10-09T05:02:56;10.10;99.90
6443;DHT22;3254;47.372;8.512;2023-10-09T05:05:43;10.00;99.90
6443;DHT22;3254;47.372;8.512;2023-10-09T05:10:54;10.10;99.90
6443;DHT22;3254;47.372;8.512;2023-10-09T05:13:26;10.20;99.90
6443;DHT22;3254;47.372;8.512;2023-10-09T05:19:03;10.20;99.90
6443;DHT22;3254;47.372;8.512;2023-10-09T05:21:38;10.20;99.90
6443;DHT22;3254;47.372;8.512;2023-10-09T05:24:08;10.20;99.90
6443;DHT22;3254;47.372;8.512;2023-10-09T05:26:42;10.20;99.90
6443;DHT22;3254;47.372;8.512;2023-10-09T05:29:14;10.30;99.90
6443;DHT22;3254;47.372;8.512;2023-10-09T05:32:00;10.30;99.90
6443;DHT22;3254;47.372;8.512;2023-10-09T05:34:54;10.40;99.90
6443;DHT22;3254;47.372;8.512;2023-10-09T05:40:10;10.20;99.90
6443;DHT22;3254;47.372;8.512;2023-10-09T05:42:41;10.20;99.90
6443;DHT22;3254;47.372;8.512;2023-10-09T05:47:53;10.50;99.90
6443;DHT22;3254;47.372;8.512;2023-10-09T05:50:25;10.50;99.90
6443;DHT22;3254;47.372;8.512;2023-10-09T05:52:51;10.40;99.90
6443;DHT22;3254;47.372;8.512;2023-10-09T05:55:21;10.30;99.90
6443;DHT22;3254;47.372;8.512;2023-10-09T05:57:51;10.30;99.90
6443;DHT22;3254;47.372;8.512;2023-10-09T06:00:36;10.40;99.90
6443;DHT22;3254;47.372;8.512;2023-10-09T06:03:20;10.50;99.90
6443;DHT22;3254;47.372;8.512;2023-10-09T06:05:53;10.50;99.90
6443;DHT22;3254;47.372;8.512;2023-10-09T06:08:20;10.50;99.90
6443;DHT22;3254;47.372;8.512;2023-10-09T06:11:04;10.70;99.90
6443;DHT22;3254;47.372;8.512;2023-10-09T06:13:48;10.90;99.90
6443;DHT22;3254;47.372;8.512;2023-10-09T06:16:27;10.90;99.90
6443;DHT22;3254;47.372;8.512;2023-10-09T06:19:14;10.90;99.90
6443;DHT22;3254;47.372;8.512;2023-10-09T06:21:51;10.90;99.90
6443;DHT22;3254;47.372;8.512;2023-10-09T06:24:23;10.90;99.90
6443;DHT22;3254;47.372;8.512;2023-10-09T06:26:50;10.90;99.90
6443;DHT22;3254;47.372;8.512;2023-10-09T06:29:29;11.10;99.90
6443;DHT22;3254;47.372;8.512;2023-10-09T06:32:05;11.20;99.90
6443;DHT22;3254;47.372;8.512;2023-10-09T06:34:51;11.30;99.90
6443;DHT22;3254;47.372;8.512;2023-10-09T06:37:19;11.40;99.90
6443;DHT22;3254;47.372;8.512;2023-10-09T06:39:45;11.50;99.90
6443;DHT22;3254;47.372;8.512;2023-10-09T06:42:37;11.70;99.90
6443;DHT22;3254;47.372;8.512;2023-10-09T06:45:10;11.70;99.90
6443;DHT22;3254;47.372;8.512;2023-10-09T06:47:51;11.90;99.90
6443;DHT22;3254;47.372;8.512;2023-10-09T06:50:37;11.90;99.90
6443;DHT22;3254;47.372;8.512;2023-10-09T06:53:41;12.00;99.90
6443;DHT22;3254;47.372;8.512;2023-10-09T06:59:00;12.20;99.90
6443;DHT22;3254;47.372;8.512;2023-10-09T07:01:41;12.30;99.90
6443;DHT22;3254;47.372;8.512;2023-10-09T07:04:16;12.40;99.90
6443;DHT22;3254;47.372;8.512;2023-10-09T07:06:49;12.50;99.90
6443;DHT22;3254;47.372;8.512;2023-10-09T07:09:16;12.60;98.30
6443;DHT22;3254;47.372;8.512;2023-10-09T07:11:46;12.80;95.60
6443;DHT22;3254;47.372;8.512;2023-10-09T07:14:17;12.90;93.50
6443;DHT22;3254;47.372;8.512;2023-10-09T07:17:09;13.00;90.30
6443;DHT22;3254;47.372;8.512;2023-10-09T07:19:56;13.20;82.00
6443;DHT22;3254;47.372;8.512;2023-10-09T07:22:37;13.30;75.10
6443;DHT22;3254;47.372;8.512;2023-10-09T07:25:20;13.40;72.20
6443;DHT22;3254;47.372;8.512;2023-10-09T07:28:04;13.50;68.70
6443;DHT22;3254;47.372;8.512;2023-10-09T07:30:44;13.70;56.20
6443;DHT22;3254;47.372;8.512;2023-10-09T07:33:11;13.80;57.30
6443;DHT22;3254;47.372;8.512;2023-10-09T07:35:41;14.20;52.60
6443;DHT22;3254;47.372;8.512;2023-10-09T07:38:17;14.80;45.50
6443;DHT22;3254;47.372;8.512;2023-10-09T07:40:49;15.70;26.60
6443;DHT22;3254;47.372;8.512;2023-10-09T07:43:43;16.50;1.00
6443;DHT22;3254;47.372;8.512;2023-10-09T07:46:12;17.20;1.00
6443;DHT22;3254;47.372;8.512;2023-10-09T07:48:59;18.00;1.00
6443;DHT22;3254;47.372;8.512;2023-10-09T07:51:26;18.60;1.00
6443;DHT22;3254;47.372;8.512;2023-10-09T07:54:01;19.20;1.00
6443;DHT22;3254;47.372;8.512;2023-10-09T07:56:41;19.60;1.00
6443;DHT22;3254;47.372;8.512;2023-10-09T07:59:07;20.20;1.00
6443;DHT22;3254;47.372;8.512;2023-10-09T08:01:40;20.30;1.00
6443;DHT22;3254;47.372;8.512;2023-10-09T08:04:21;20.30;1.00
6443;DHT22;3254;47.372;8.512;2023-10-09T08:07:12;20.10;1.00
6443;DHT22;3254;47.372;8.512;2023-10-09T08:09:48;19.60;1.00
6443;DHT22;3254;47.372;8.512;2023-10-09T08:12:34;19.00;1.00
6443;DHT22;3254;47.372;8.512;2023-10-09T08:15:16;18.70;1.00
6443;DHT22;3254;47.372;8.512;2023-10-09T08:17:52;18.40;1.00
6443;DHT22;3254;47.372;8.512;2023-10-09T08:20:29;18.20;1.00
6443;DHT22;3254;47.372;8.512;2023-10-09T08:23:15;18.10;1.00
6443;DHT22;3254;47.372;8.512;2023-10-09T08:26:02;17.90;1.00
6443;DHT22;3254;47.372;8.512;2023-10-09T08:28:44;17.80;1.00
6443;DHT22;3254;47.372;8.512;2023-10-09T08:31:20;18.00;1.00
6443;DHT22;3254;47.372;8.512;2023-10-09T08:34:12;18.20;1.00
6443;DHT22;3254;47.372;8.512;2023-10-09T08:36:50;18.70;1.00
6443;DHT22;3254;47.372;8.512;2023-10-09T08:39:19;19.20;1.00
6443;DHT22;3254;47.372;8.512;2023-10-09T08:41:54;19.50;1.00
6443;DHT22;3254;47.372;8.512;2023-10-09T08:44:28;19.90;1.00
6443;DHT22;3254;47.372;8.512;2023-10-09T08:46:57;20.20;1.00
6443;DHT22;3254;47.372;8.512;2023-10-09T08:49:25;20.50;1.00
6443;DHT22;3254;47.372;8.512;2023-10-09T08:51:51;21.00;1.00
6443;DHT22;3254;47.372;8.512;2023-10-09T08:54:20;21.30;1.00
6443;DHT22;3254;47.372;8.512;2023-10-09T08:56:46;21.60;1.00
6443;DHT22;3254;47.372;8.512;2023-10-09T08:59:16;21.90;1.00
6443;DHT22;3254;47.372;8.512;2023-10-09T09:01:47;22.00;1.00
6443;DHT22;3254;47.372;8.512;2023-10-09T09:04:35;22.20;1.00
6443;DHT22;3254;47.372;8.512;2023-10-09T09:07:47;22.10;1.00
6443;DHT22;3254;47.372;8.512;2023-10-09T09:09:58;22.20;1.00
6443;DHT22;3254;47.372;8.512;2023-10-09T09:12:30;22.00;1.00
6443;DHT22;3254;47.372;8.512;2023-10-09T09:15:04;21.90;1.00
6443;DHT22;3254;47.372;8.512;2023-10-09T09:17:38;21.60;1.00
6443;DHT22;3254;47.372;8.512;2023-10-09T09:20:25;21.60;1.00
6443;DHT22;3254;47.372;8.512;2023-10-09T09:22:56;21.80;1.00
6443;DHT22;3254;47.372;8.512;2023-10-09T09:25:22;22.60;1.00
6443;DHT22;3254;47.372;8.512;2023-10-09T09:27:50;23.50;1.00
6443;DHT22;3254;47.372;8.512;2023-10-09T09:30:29;24.60;1.00
6443;DHT22;3254;47.372;8.512;2023-10-09T09:33:16;25.60;1.00
6443;DHT22;3254;47.372;8.512;2023-10-09T09:36:01;26.00;1.00
6443;DHT22;3254;47.372;8.512;2023-10-09T09:38:31;26.00;1.00
6443;DHT22;3254;47.372;8.512;2023-10-09T09:41:18;25.90;1.00
6443;DHT22;3254;47.372;8.512;2023-10-09T09:43:59;26.00;1.00
6443;DHT22;3254;47.372;8.512;2023-10-09T09:46:34;26.00;1.00
6443;DHT22;3254;47.372;8.512;2023-10-09T09:49:07;25.50;1.00
6443;DHT22;3254;47.372;8.512;2023-10-09T09:51:42;25.40;1.00
6443;DHT22;3254;47.372;8.512;2023-10-09T09:54:12;25.30;1.00
6443;DHT22;3254;47.372;8.512;2023-10-09T09:56:45;25.90;1.00
6443;DHT22;3254;47.372;8.512;2023-10-09T09:59:25;26.20;1.00
6443;DHT22;3254;47.372;8.512;2023-10-09T10:01:56;26.40;1.00
6443;DHT22;3254;47.372;8.512;2023-10-09T10:04:26;27.00;1.00
6443;DHT22;3254;47.372;8.512;2023-10-09T10:06:55;27.30;1.00
6443;DHT22;3254;47.372;8.512;2023-10-09T10:09:41;27.50;1.00
6443;DHT22;3254;47.372;8.512;2023-10-09T10:12:10;27.20;1.00
6443;DHT22;3254;47.372;8.512;2023-10-09T10:14:58;27.10;1.00
6443;DHT22;3254;47.372;8.512;2023-10-09T10:17:25;27.20;1.00
6443;DHT22;3254;47.372;8.512;2023-10-09T10:20:01;27.60;1.00
6443;DHT22;3254;47.372;8.512;2023-10-09T10:22:39;27.40;1.00
6443;DHT22;3254;47.372;8.512;2023-10-09T10:25:05;27.10;1.00
6443;DHT22;3254;47.372;8.512;2023-10-09T10:27:36;27.10;1.00
6443;DHT22;3254;47.372;8.512;2023-10-09T10:30:28;27.00;1.00
6443;DHT22;3254;47.372;8.512;2023-10-09T10:33:00;27.20;1.00
6443;DHT22;3254;47.372;8.512;2023-10-09T10:35:36;27.60;1.00
6443;DHT22;3254;47.372;8.512;2023-10-09T10:38:33;27.50;1.00
6443;DHT22;3254;47.372;8.512;2023-10-09T10:41:28;27.80;1.00
6443;DHT22;3254;47.372;8.512;2023-10-09T10:43:56;28.50;1.00
6443;DHT22;3254;47.372;8.512;2023-10-09T10:46:26;28.60;1.00
6443;DHT22;3254;47.372;8.512;2023-10-09T10:49:04;28.90;1.00
6443;DHT22;3254;47.372;8.512;2023-10-09T10:51:43;29.50;1.00
6443;DHT22;3254;47.372;8.512;2023-10-09T10:54:25;30.50;1.00
6443;DHT22;3254;47.372;8.512;2023-10-09T10:57:15;31.60;1.00
6443;DHT22;3254;47.372;8.512;2023-10-09T11:00:17;31.80;1.00
6443;DHT22;3254;47.372;8.512;2023-10-09T11:03:01;31.60;1.00
6443;DHT22;3254;47.372;8.512;2023-10-09T11:05:41;31.50;1.00
6443;DHT22;3254;47.372;8.512;2023-10-09T11:08:10;31.50;1.00
6443;DHT22;3254;47.372;8.512;2023-10-09T11:10:38;31.40;1.00
6443;DHT22;3254;47.372;8.512;2023-10-09T11:13:26;30.50;1.00
6443;DHT22;3254;47.372;8.512;2023-10-09T11:16:04;30.10;1.00
6443;DHT22;3254;47.372;8.512;2023-10-09T11:18:49;29.90;1.00
6443;DHT22;3254;47.372;8.512;2023-10-09T11:21:15;30.00;1.00
6443;DHT22;3254;47.372;8.512;2023-10-09T11:23:44;29.80;1.00
6443;DHT22;3254;47.372;8.512;2023-10-09T11:26:25;29.80;1.00
6443;DHT22;3254;47.372;8.512;2023-10-09T11:29:25;29.40;1.00
6443;DHT22;3254;47.372;8.512;2023-10-09T11:32:21;29.20;1.00
6443;DHT22;3254;47.372;8.512;2023-10-09T11:37:37;29.50;1.00
6443;DHT22;3254;47.372;8.512;2023-10-09T11:40:33;29.40;1.00
6443;DHT22;3254;47.372;8.512;2023-10-09T11:43:17;29.20;1.00
6443;DHT22;3254;47.372;8.512;2023-10-09T11:45:46;29.20;1.00
6443;DHT22;3254;47.372;8.512;2023-10-09T11:48:21;29.30;1.00
6443;DHT22;3254;47.372;8.512;2023-10-09T11:50:55;29.30;1.00
6443;DHT22;3254;47.372;8.512;2023-10-09T11:53:41;29.60;1.00
6443;DHT22;3254;47.372;8.512;2023-10-09T11:56:09;29.80;1.00
6443;DHT22;3254;47.372;8.512;2023-10-09T11:58:49;29.90;1.00
6443;DHT22;3254;47.372;8.512;2023-10-09T12:01:19;29.90;1.00
6443;DHT22;3254;47.372;8.512;2023-10-09T12:03:48;29.70;1.00
6443;DHT22;3254;47.372;8.512;2023-10-09T12:06:22;29.50;1.00
6443;DHT22;3254;47.372;8.512;2023-10-09T12:08:48;29.30;1.00
6443;DHT22;3254;47.372;8.512;2023-10-09T12:11:14;29.10;1.00
6443;DHT22;3254;47.372;8.512;2023-10-09T12:13:50;29.20;1.00
6443;DHT22;3254;47.372;8.512;2023-10-09T12:16:22;29.40;1.00
6443;DHT22;3254;47.372;8.512;2023-10-09T12:18:47;29.50;1.00
6443;DHT22;3254;47.372;8.512;2023-10-09T12:21:19;29.80;1.00
6443;DHT22;3254;47.372;8.512;2023-10-09T12:23:49;29.70;1.00
6443;DHT22;3254;47.372;8.512;2023-10-09T12:26:14;29.80;1.00
6443;DHT22;3254;47.372;8.512;2023-10-09T12:28:44;29.70;1.00
6443;DHT22;3254;47.372;8.512;2023-10-09T12:31:12;29.90;1.00
6443;DHT22;3254;47.372;8.512;2023-10-09T12:33:40;29.70;1.00
6443;DHT22;3254;47.372;8.512;2023-10-09T12:36:05;29.70;1.00
6443;DHT22;3254;47.372;8.512;2023-10-09T12:38:32;29.80;1.00
6443;DHT22;3254;47.372;8.512;2023-10-09T12:41:03;29.50;1.00
6443;DHT22;3254;47.372;8.512;2023-10-09T12:43:34;29.30;1.00
6443;DHT22;3254;47.372;8.512;2023-10-09T12:46:07;28.90;1.00
6443;DHT22;3254;47.372;8.512;2023-10-09T12:48:34;28.70;1.00
6443;DHT22;3254;47.372;8.512;2023-10-09T12:51:01;28.30;1.00
6443;DHT22;3254;47.372;8.512;2023-10-09T12:53:36;28.10;1.00
6443;DHT22;3254;47.372;8.512;2023-10-09T12:56:06;27.90;1.00
6443;DHT22;3254;47.372;8.512;2023-10-09T12:58:34;27.80;1.00
6443;DHT22;3254;47.372;8.512;2023-10-09T13:01:03;27.40;1.00
6443;DHT22;3254;47.372;8.512;2023-10-09T13:03:38;27.20;1.00
6443;DHT22;3254;47.372;8.512;2023-10-09T13:06:06;27.20;1.00
6443;DHT22;3254;47.372;8.512;2023-10-09T13:08:37;27.10;1.00
6443;DHT22;3254;47.372;8.512;2023-10-09T13:11:07;27.00;1.00
6443;DHT22;3254;47.372;8.512;2023-10-09T13:13:37;27.30;1.00
6443;DHT22;3254;47.372;8.512;2023-10-09T13:16:09;27.10;1.00
6443;DHT22;3254;47.372;8.512;2023-10-09T13:18:38;27.00;1.00
6443;DHT22;3254;47.372;8.512;2023-10-09T13:21:04;26.90;1.00
6443;DHT22;3254;47.372;8.512;2023-10-09T13:23:31;26.70;1.00
6443;DHT22;3254;47.372;8.512;2023-10-09T13:26:07;26.60;1.00
6443;DHT22;3254;47.372;8.512;2023-10-09T13:28:56;26.60;1.00
6443;DHT22;3254;47.372;8.512;2023-10-09T13:31:24;26.30;1.00
6443;DHT22;3254;47.372;8.512;2023-10-09T13:33:54;26.10;1.00
6443;DHT22;3254;47.372;8.512;2023-10-09T13:36:26;26.20;1.00
6443;DHT22;3254;47.372;8.512;2023-10-09T13:39:01;25.90;1.00
6443;DHT22;3254;47.372;8.512;2023-10-09T13:41:46;26.10;1.00
6443;DHT22;3254;47.372;8.512;2023-10-09T13:44:11;26.20;1.00
6443;DHT22;3254;47.372;8.512;2023-10-09T13:46:37;26.20;1.00
6443;DHT22;3254;47.372;8.512;2023-10-09T13:49:15;26.20;1.00
6443;DHT22;3254;47.372;8.512;2023-10-09T13:51:42;26.20;1.00
6443;DHT22;3254;47.372;8.512;2023-10-09T13:54:14;26.00;1.00
6443;DHT22;3254;47.372;8.512;2023-10-09T13:57:04;25.70;1.00
6443;DHT22;3254;47.372;8.512;2023-10-09T13:59:36;25.50;1.00
6443;DHT22;3254;47.372;8.512;2023-10-09T14:02:07;25.40;1.00
6443;DHT22;3254;47.372;8.512;2023-10-09T14:04:42;25.30;1.00
6443;DHT22;3254;47.372;8.512;2023-10-09T14:07:09;25.40;1.00
6443;DHT22;3254;47.372;8.512;2023-10-09T14:09:35;25.30;1.00
6443;DHT22;3254;47.372;8.512;2023-10-09T14:12:05;25.20;1.00
6443;DHT22;3254;47.372;8.512;2023-10-09T14:14:40;25.20;1.00
6443;DHT22;3254;47.372;8.512;2023-10-09T14:17:15;25.10;1.00
6443;DHT22;3254;47.372;8.512;2023-10-09T14:19:47;25.00;1.00
6443;DHT22;3254;47.372;8.512;2023-10-09T14:22:14;25.00;1.00
6443;DHT22;3254;47.372;8.512;2023-10-09T14:24:47;25.10;1.00
6443;DHT22;3254;47.372;8.512;2023-10-09T14:27:14;25.30;1.00
6443;DHT22;3254;47.372;8.512;2023-10-09T14:29:50;25.30;1.00
6443;DHT22;3254;47.372;8.512;2023-10-09T14:32:17;25.40;1.00
6443;DHT22;3254;47.372;8.512;2023-10-09T14:34:43;25.50;1.00
6443;DHT22;3254;47.372;8.512;2023-10-09T14:37:17;25.40;1.00
6443;DHT22;3254;47.372;8.512;2023-10-09T14:39:45;25.30;1.00
6443;DHT22;3254;47.372;8.512;2023-10-09T14:42:16;25.20;1.00
6443;DHT22;3254;47.372;8.512;2023-10-09T14:44:42;25.30;1.00
6443;DHT22;3254;47.372;8.512;2023-10-09T14:47:11;25.60;1.00
6443;DHT22;3254;47.372;8.512;2023-10-09T14:49:37;25.80;1.00
6443;DHT22;3254;47.372;8.512;2023-10-09T14:52:09;25.90;1.00
6443;DHT22;3254;47.372;8.512;2023-10-09T14:54:35;25.90;1.00
6443;DHT22;3254;47.372;8.512;2023-10-09T14:57:01;26.10;1.00
6443;DHT22;3254;47.372;8.512;2023-10-09T14:59:31;26.10;1.00
6443;DHT22;3254;47.372;8.512;2023-10-09T15:01:57;26.20;1.00
6443;DHT22;3254;47.372;8.512;2023-10-09T15:04:23;26.30;1.00
6443;DHT22;3254;47.372;8.512;2023-10-09T15:06:56;26.80;1.00
6443;DHT22;3254;47.372;8.512;2023-10-09T15:09:22;27.10;1.00
6443;DHT22;3254;47.372;8.512;2023-10-09T15:11:52;27.70;1.00
6443;DHT22;3254;47.372;8.512;2023-10-09T15:14:18;28.40;1.00
6443;DHT22;3254;47.372;8.512;2023-10-09T15:16:44;29.30;1.00
6443;DHT22;3254;47.372;8.512;2023-10-09T15:19:13;30.00;1.00
6443;DHT22;3254;47.372;8.512;2023-10-09T15:21:39;30.00;1.00
6443;DHT22;3254;47.372;8.512;2023-10-09T15:24:13;29.80;1.00
6443;DHT22;3254;47.372;8.512;2023-10-09T15:26:48;29.80;1.00
6443;DHT22;3254;47.372;8.512;2023-10-09T15:29:27;29.90;1.00
6443;DHT22;3254;47.372;8.512;2023-10-09T15:31:58;29.80;1.00
6443;DHT22;3254;47.372;8.512;2023-10-09T15:34:32;29.60;1.00
6443;DHT22;3254;47.372;8.512;2023-10-09T15:37:02;29.30;1.00
6443;DHT22;3254;47.372;8.512;2023-10-09T15:39:52;29.30;1.00
6443;DHT22;3254;47.372;8.512;2023-10-09T15:42:17;29.00;1.00
6443;DHT22;3254;47.372;8.512;2023-10-09T15:44:43;28.90;1.00
6443;DHT22;3254;47.372;8.512;2023-10-09T15:47:14;28.60;1.00
6443;DHT22;3254;47.372;8.512;2023-10-09T15:49:41;28.40;1.00
6443;DHT22;3254;47.372;8.512;2023-10-09T15:52:09;28.30;1.00
6443;DHT22;3254;47.372;8.512;2023-10-09T15:54:40;28.00;1.00
6443;DHT22;3254;47.372;8.512;2023-10-09T15:57:08;27.30;1.00
6443;DHT22;3254;47.372;8.512;2023-10-09T15:59:36;27.00;1.00
6443;DHT22;3254;47.372;8.512;2023-10-09T16:02:01;26.70;1.00
6443;DHT22;3254;47.372;8.512;2023-10-09T16:04:28;26.30;1.00
6443;DHT22;3254;47.372;8.512;2023-10-09T16:07:00;25.80;1.00
6443;DHT22;3254;47.372;8.512;2023-10-09T16:09:26;25.50;1.00
6443;DHT22;3254;47.372;8.512;2023-10-09T16:11:54;25.30;1.00
6443;DHT22;3254;47.372;8.512;2023-10-09T16:14:20;25.10;1.00
6443;DHT22;3254;47.372;8.512;2023-10-09T16:16:46;24.90;1.00
6443;DHT22;3254;47.372;8.512;2023-10-09T16:19:12;24.70;1.00
6443;DHT22;3254;47.372;8.512;2023-10-09T16:21:39;24.50;1.00
6443;DHT22;3254;47.372;8.512;2023-10-09T16:24:05;24.30;1.00
6443;DHT22;3254;47.372;8.512;2023-10-09T16:26:36;24.00;1.00
6443;DHT22;3254;47.372;8.512;2023-10-09T16:29:11;23.70;1.00
6443;DHT22;3254;47.372;8.512;2023-10-09T16:31:37;23.50;1.00
6443;DHT22;3254;47.372;8.512;2023-10-09T16:34:03;23.30;1.00
6443;DHT22;3254;47.372;8.512;2023-10-09T16:36:30;23.00;1.00
6443;DHT22;3254;47.372;8.512;2023-10-09T16:38:57;22.90;1.00
6443;DHT22;3254;47.372;8.512;2023-10-09T16:41:25;22.70;1.00
6443;DHT22;3254;47.372;8.512;2023-10-09T16:43:52;22.50;1.00
6443;DHT22;3254;47.372;8.512;2023-10-09T16:46:19;22.20;1.00
6443;DHT22;3254;47.372;8.512;2023-10-09T16:48:50;22.00;1.00
6443;DHT22;3254;47.372;8.512;2023-10-09T16:51:18;21.80;1.00
6443;DHT22;3254;47.372;8.512;2023-10-09T16:53:47;21.60;1.00
6443;DHT22;3254;47.372;8.512;2023-10-09T16:56:20;21.50;1.00
6443;DHT22;3254;47.372;8.512;2023-10-09T16:58:46;21.30;1.00
6443;DHT22;3254;47.372;8.512;2023-10-09T17:01:13;21.20;1.00
6443;DHT22;3254;47.372;8.512;2023-10-09T17:03:42;21.10;1.00
6443;DHT22;3254;47.372;8.512;2023-10-09T17:06:12;20.90;1.00
6443;DHT22;3254;47.372;8.512;2023-10-09T17:08:46;20.80;1.00
6443;DHT22;3254;47.372;8.512;2023-10-09T17:11:15;20.70;1.00